^^
Saratoga-Weather Station Historical Data
Daily Summary for May 15, 2021 Units:  Metric    English   Both
Daily Weekly Monthly Yearly Custom
  High: Low: Average:
Temperature: 12.5 °C 8.9 °C 10.4 °C
Dew Point: 9.9 °C 7.8 °C 8.6 °C
Humidity: 93% 79% 89%
Wind Speed: 16.3km/h 0km/h 2.1km/h
Wind Gust: 19.3km/h - -
Wind- - South
Pressure: 1008.5 hPa 1002.4 hPa -
Precipitation: 3.0 mm    
Historical Graphs
 
 
Tabular Data for May 15, 2021
Time Temperature Dew Point Pressure Wind Wind Speed Wind Gust Humidity Rainfall Rate (Hourly) solar
00:04 10.4 °C 8 °C 1008.5 hPa Calm   4.8 km/h 85% 0.0 mm 0 W/m2
00:09 10.4 °C 8 °C 1008.5 hPa NE 1.4 km/h 3.2 km/h 85% 0.0 mm 0 W/m2
00:14 10.5 °C 8.1 °C 1008.5 hPa ENE 3.2 km/h 3.2 km/h 85% 0.0 mm 0 W/m2
00:19 10.5 °C 8.1 °C 1008.5 hPa NNE 3.2 km/h 3.2 km/h 85% 0.0 mm 0 W/m2
00:24 10.6 °C 8.4 °C 1008.5 hPa NW 1.4 km/h 4.8 km/h 86% 0.0 mm 0 W/m2
00:29 10.5 °C 8.3 °C 1008.5 hPa ESE 3.2 km/h 6.4 km/h 86% 0.0 mm 0 W/m2
00:34 10.5 °C 8.4 °C 1008.5 hPa North 3.2 km/h 3.2 km/h 87% 0.0 mm 0 W/m2
00:39 10.4 °C 8.3 °C 1008.5 hPa NNW 1.4 km/h 4.8 km/h 87% 0.0 mm 0 W/m2
00:44 10.4 °C 8.3 °C 1008.5 hPa NW 1.4 km/h 4.8 km/h 87% 0.0 mm 0 W/m2
00:49 10.4 °C 8.5 °C 1008.5 hPa NNW 1.4 km/h 3.2 km/h 88% 0.0 mm 0 W/m2
00:54 10.4 °C 8.5 °C 1008.5 hPa NNE 1.4 km/h 4.8 km/h 88% 0.0 mm 0 W/m2
00:59 10.4 °C 8.5 °C 1008.5 hPa West 1.4 km/h 19.3 km/h 88% 0.0 mm 0 W/m2
01:04 10.3 °C 8.4 °C 1008.5 hPa Calm   6.4 km/h 88% 0.2 mm 0 W/m2
01:09 10.3 °C 8.6 °C 1008.5 hPa SSE 1.4 km/h 19.3 km/h 89% 0.5 mm 0 W/m2
01:14 10.2 °C 8.5 °C 1008.1 hPa Calm   3.2 km/h 89% 0.5 mm 0 W/m2
01:19 10.1 °C 8.4 °C 1008.5 hPa NW 1.4 km/h 4.8 km/h 89% 0.8 mm 0 W/m2
01:24 10.1 °C 8.5 °C 1008.1 hPa NNW 1.4 km/h 4.8 km/h 90% 0.8 mm 0 W/m2
01:29 10 °C 8.4 °C 1008.1 hPa NW 6.4 km/h 8 km/h 90% 0.8 mm 0 W/m2
01:34 9.9 °C 8.5 °C 1008.1 hPa Calm     91% 0.8 mm 0 W/m2
01:39 9.9 °C 8.5 °C 1008.1 hPa Calm   4.8 km/h 91% 0.8 mm 0 W/m2
01:44 9.8 °C 8.4 °C 1008.1 hPa ESE 3.2 km/h 3.2 km/h 91% 0.8 mm 0 W/m2
01:49 9.8 °C 8.4 °C 1008.1 hPa WSW 1.4 km/h 3.2 km/h 91% 0.8 mm 0 W/m2
01:54 9.8 °C 8.6 °C 1008.1 hPa Calm   3.2 km/h 92% 0.8 mm 0 W/m2
01:59 9.8 °C 8.6 °C 1008.1 hPa NE 1.4 km/h 8 km/h 92% 1.3 mm 0 W/m2
02:04 9.8 °C 8.6 °C 1008.1 hPa Calm   3.2 km/h 92% 1.5 mm 0 W/m2
02:09 9.8 °C 8.6 °C 1008.1 hPa NNW 7.9 km/h 9.7 km/h 92% 1.5 mm 0 W/m2
02:14 9.8 °C 8.6 °C 1008.1 hPa West 1.4 km/h 3.2 km/h 92% 1.5 mm 0 W/m2
02:19 9.8 °C 8.6 °C 1008.1 hPa WNW 1.4 km/h 9.7 km/h 92% 1.3 mm 0 W/m2
02:24 9.8 °C 8.6 °C 1008.1 hPa WNW 3.2 km/h 4.8 km/h 92% 1.3 mm 0 W/m2
02:29 9.8 °C 8.6 °C 1008.1 hPa SW 1.4 km/h 1.6 km/h 92% 1.3 mm 0 W/m2
02:34 9.8 °C 8.6 °C 1007.8 hPa NW 1.4 km/h 3.2 km/h 92% 1.3 mm 0 W/m2
02:40 9.8 °C 8.6 °C 1007.8 hPa NNW 1.4 km/h 3.2 km/h 92% 1.3 mm 0 W/m2
02:45 9.8 °C 8.6 °C 1007.8 hPa WNW 3.2 km/h 6.4 km/h 92% 1.3 mm 0 W/m2
02:50 9.8 °C 8.6 °C 1007.8 hPa NW 4.7 km/h 6.4 km/h 92% 1.3 mm 0 W/m2
02:55 9.7 °C 8.5 °C 1007.8 hPa NE 1.4 km/h 3.2 km/h 92% 1.3 mm 0 W/m2
03:00 9.7 °C 8.5 °C 1007.8 hPa West 1.4 km/h 6.4 km/h 92% 0.5 mm 0 W/m2
03:05 9.7 °C 8.5 °C 1007.8 hPa WNW 1.4 km/h 3.2 km/h 92% 0.5 mm 0 W/m2
03:10 9.6 °C 8.4 °C 1007.8 hPa WNW 6.4 km/h 6.4 km/h 92% 0.2 mm 0 W/m2
03:15 9.6 °C 8.4 °C 1007.8 hPa NW 3.2 km/h 6.4 km/h 92% 0.0 mm 0 W/m2
03:20 9.7 °C 8.5 °C 1007.8 hPa West 1.4 km/h 8 km/h 92% 0.0 mm 0 W/m2
03:25 9.7 °C 8.5 °C 1007.8 hPa WNW 1.4 km/h 4.8 km/h 92% 0.0 mm 0 W/m2
03:30 9.7 °C 8.3 °C 1007.8 hPa Calm   6.4 km/h 91% 0.0 mm 0 W/m2
03:35 9.7 °C 8.3 °C 1007.8 hPa Calm   3.2 km/h 91% 0.0 mm 0 W/m2
03:40 9.7 °C 8.3 °C 1007.8 hPa NW 3.2 km/h 6.4 km/h 91% 0.0 mm 0 W/m2
03:45 9.6 °C 8.2 °C 1007.8 hPa North 4.7 km/h 11.3 km/h 91% 0.0 mm 0 W/m2
03:50 9.6 °C 8.2 °C 1007.8 hPa NW 3.2 km/h 6.4 km/h 91% 0.0 mm 0 W/m2
03:55 9.5 °C 8.1 °C 1007.8 hPa Calm   9.7 km/h 91% 0.0 mm 0 W/m2
04:00 9.4 °C 8 °C 1007.8 hPa West 4.7 km/h 14.5 km/h 91% 0.0 mm 0 W/m2
04:05 9.3 °C 8.1 °C 1007.8 hPa Calm   3.2 km/h 92% 0.0 mm 0 W/m2
04:10 9.2 °C 7.8 °C 1007.8 hPa Calm   14.5 km/h 91% 0.0 mm 0 W/m2
04:15 9.1 °C 7.9 °C 1007.8 hPa Calm   4.8 km/h 92% 0.0 mm 0 W/m2
04:20 9.1 °C 7.9 °C 1007.5 hPa WSW 1.4 km/h 1.6 km/h 92% 0.0 mm 0 W/m2
04:25 9.1 °C 7.9 °C 1007.8 hPa Calm     92% 0.0 mm 0 W/m2
04:30 9.1 °C 8 °C 1007.8 hPa Calm   1.6 km/h 93% 0.0 mm 0 W/m2
04:35 9.1 °C 8 °C 1007.5 hPa NW 1.4 km/h 3.2 km/h 93% 0.0 mm 0 W/m2
04:40 9.1 °C 8 °C 1007.5 hPa Calm     93% 0.0 mm 0 W/m2
04:45 9.1 °C 8 °C 1007.5 hPa Calm   4.8 km/h 93% 0.0 mm 0 W/m2
04:50 9.1 °C 8 °C 1007.5 hPa Calm   3.2 km/h 93% 0.0 mm 0 W/m2
04:55 9.1 °C 8 °C 1007.5 hPa East 3.2 km/h 4.8 km/h 93% 0.0 mm 0 W/m2
05:00 9.1 °C 8 °C 1007.5 hPa East 3.2 km/h 3.2 km/h 93% 0.0 mm 0 W/m2
05:05 9.1 °C 8 °C 1007.5 hPa Calm   4.8 km/h 93% 0.2 mm 0 W/m2
05:10 9.1 °C 8 °C 1007.5 hPa East 3.2 km/h 3.2 km/h 93% 0.2 mm 0 W/m2
05:15 9.1 °C 8 °C 1007.5 hPa East 4.8 km/h 4.8 km/h 93% 0.2 mm 0 W/m2
05:20 9.1 °C 8 °C 1007.5 hPa Calm   1.6 km/h 93% 0.2 mm 0 W/m2
05:25 9.1 °C 8 °C 1007.5 hPa WSW 3.2 km/h 4.8 km/h 93% 0.2 mm 0 W/m2
05:30 9.1 °C 8 °C 1007.5 hPa Calm   1.6 km/h 93% 0.2 mm 0 W/m2
05:35 9 °C 7.9 °C 1007.5 hPa NW 1.4 km/h 4.8 km/h 93% 0.2 mm 0 W/m2
05:40 8.9 °C 7.8 °C 1007.5 hPa Calm   1.6 km/h 93% 0.2 mm 0 W/m2
05:45 8.9 °C 7.8 °C 1007.5 hPa NW 3.2 km/h 4.8 km/h 93% 0.2 mm 0 W/m2
05:50 8.9 °C 7.8 °C 1007.5 hPa Calm   3.2 km/h 93% 0.2 mm 0 W/m2
05:55 8.9 °C 7.8 °C 1007.5 hPa Calm   4.8 km/h 93% 0.2 mm 0 W/m2
06:00 8.9 °C 7.8 °C 1007.5 hPa Calm     93% 0.2 mm 0 W/m2
06:05 9 °C 7.9 °C 1007.1 hPa Calm     93% 0.0 mm 0 W/m2
06:10 9 °C 7.9 °C 1007.1 hPa Calm   1.6 km/h 93% 0.0 mm 5 W/m2
06:15 9.1 °C 8 °C 1007.1 hPa Calm   1.6 km/h 93% 0.0 mm 11 W/m2
06:20 9.1 °C 8 °C 1007.1 hPa NE 3.2 km/h 4.8 km/h 93% 0.0 mm 14 W/m2
06:25 9.1 °C 8 °C 1007.1 hPa Calm   3.2 km/h 93% 0.0 mm 14 W/m2
06:30 9.2 °C 8.1 °C 1007.1 hPa Calm   4.8 km/h 93% 0.0 mm 11 W/m2
06:35 9.2 °C 8.1 °C 1007.1 hPa NNW 1.4 km/h 3.2 km/h 93% 0.0 mm 14 W/m2
06:40 9.2 °C 8.1 °C 1007.1 hPa Calm   3.2 km/h 93% 0.0 mm 14 W/m2
06:45 9.2 °C 8.1 °C 1006.8 hPa Calm   4.8 km/h 93% 0.0 mm 18 W/m2
06:50 9.3 °C 8.2 °C 1007.1 hPa NE 1.4 km/h 3.2 km/h 93% 0.0 mm 25 W/m2
06:55 9.3 °C 8.2 °C 1006.8 hPa Calm   1.6 km/h 93% 0.0 mm 30 W/m2
07:01 9.3 °C 8.2 °C 1006.8 hPa Calm   1.6 km/h 93% 0.0 mm 26 W/m2
07:06 9.4 °C 8.3 °C 1006.8 hPa NE 1.4 km/h 3.2 km/h 93% 0.0 mm 28 W/m2
07:11 9.4 °C 8.3 °C 1006.8 hPa NE 3.2 km/h 3.2 km/h 93% 0.0 mm 65 W/m2
07:16 9.5 °C 8.4 °C 1006.8 hPa ENE 3.2 km/h 6.4 km/h 93% 0.0 mm 60 W/m2
07:21 9.6 °C 8.5 °C 1006.8 hPa ENE 1.4 km/h 4.8 km/h 93% 0.0 mm 62 W/m2
07:26 9.7 °C 8.6 °C 1006.8 hPa Calm   6.4 km/h 93% 0.0 mm 49 W/m2
07:31 9.7 °C 8.5 °C 1006.8 hPa Calm   1.6 km/h 92% 0.0 mm 46 W/m2
07:36 9.8 °C 8.6 °C 1006.8 hPa North 1.4 km/h 3.2 km/h 92% 0.0 mm 39 W/m2
07:41 9.8 °C 8.6 °C 1006.8 hPa ENE 3.2 km/h 8 km/h 92% 0.0 mm 32 W/m2
07:46 9.8 °C 8.6 °C 1006.8 hPa Calm     92% 0.0 mm 33 W/m2
07:51 9.8 °C 8.6 °C 1006.8 hPa ENE 3.2 km/h 8 km/h 92% 0.0 mm 39 W/m2
07:56 9.8 °C 8.6 °C 1006.8 hPa ENE 3.2 km/h 4.8 km/h 92% 0.0 mm 47 W/m2
08:01 9.9 °C 8.7 °C 1006.8 hPa ENE 1.4 km/h 3.2 km/h 92% 0.0 mm 35 W/m2
08:06 9.9 °C 8.7 °C 1006.8 hPa East 4.7 km/h 6.4 km/h 92% 0.0 mm 47 W/m2
08:11 9.9 °C 8.7 °C 1006.8 hPa East 3.2 km/h 8 km/h 92% 0.0 mm 74 W/m2
08:16 9.9 °C 8.7 °C 1006.8 hPa NE 1.4 km/h 3.2 km/h 92% 0.0 mm 53 W/m2
08:21 9.9 °C 8.7 °C 1006.8 hPa North 4.7 km/h 8 km/h 92% 0.0 mm 63 W/m2
08:26 9.9 °C 8.7 °C 1006.8 hPa NE 1.4 km/h 3.2 km/h 92% 0.0 mm 77 W/m2
08:31 9.9 °C 8.7 °C 1006.8 hPa NE 1.4 km/h 3.2 km/h 92% 0.0 mm 83 W/m2
08:36 10 °C 8.8 °C 1006.8 hPa NNE 1.4 km/h 3.2 km/h 92% 0.0 mm 84 W/m2
08:41 10.1 °C 8.9 °C 1006.8 hPa WNW 9.7 km/h 9.7 km/h 92% 0.0 mm 141 W/m2
08:46 10.1 °C 8.7 °C 1006.8 hPa NW 3.2 km/h 4.8 km/h 91% 0.0 mm 137 W/m2
08:51 10.1 °C 8.7 °C 1006.4 hPa Calm   3.2 km/h 91% 0.0 mm 114 W/m2
08:56 10.2 °C 8.8 °C 1006.8 hPa NNW 4.7 km/h 4.8 km/h 91% 0.0 mm 88 W/m2
09:01 10.2 °C 8.6 °C 1006.4 hPa Calm   3.2 km/h 90% 0.0 mm 69 W/m2
09:06 10.2 °C 8.6 °C 1006.4 hPa NNE 1.4 km/h 4.8 km/h 90% 0.0 mm 121 W/m2
09:11 10.3 °C 8.7 °C 1006.4 hPa Calm   1.6 km/h 90% 0.0 mm 130 W/m2
09:16 10.4 °C 8.8 °C 1006.4 hPa WNW 3.2 km/h 4.8 km/h 90% 0.0 mm 213 W/m2
09:21 10.5 °C 8.9 °C 1006.4 hPa Calm   4.8 km/h 90% 0.0 mm 202 W/m2
09:26 10.7 °C 9.1 °C 1006.4 hPa North 4.7 km/h 4.8 km/h 90% 0.0 mm 230 W/m2
09:31 10.7 °C 9 °C 1006.4 hPa NNE 1.4 km/h 4.8 km/h 89% 0.0 mm 98 W/m2
09:36 10.8 °C 9.2 °C 1006.4 hPa NW 3.2 km/h 4.8 km/h 90% 0.0 mm 79 W/m2
09:41 10.8 °C 9.1 °C 1006.4 hPa SE 4.7 km/h 4.8 km/h 89% 0.0 mm 137 W/m2
09:46 10.8 °C 9.1 °C 1006.4 hPa NE 3.2 km/h 4.8 km/h 89% 0.0 mm 255 W/m2
09:51 10.9 °C 9.3 °C 1006.1 hPa North 1.4 km/h 6.4 km/h 90% 0.0 mm 308 W/m2
09:56 11.1 °C 9.5 °C 1006.1 hPa NE 1.4 km/h 8 km/h 90% 0.0 mm 250 W/m2
10:01 11.2 °C 9.5 °C 1006.1 hPa Calm   4.8 km/h 89% 0.0 mm 248 W/m2
10:06 11.3 °C 9.4 °C 1006.1 hPa North 3.2 km/h 4.8 km/h 88% 0.0 mm 211 W/m2
10:11 11.3 °C 9.4 °C 1006.1 hPa Calm   3.2 km/h 88% 0.0 mm 250 W/m2
10:16 11.4 °C 9.3 °C 1005.8 hPa North 1.4 km/h 3.2 km/h 87% 0.0 mm 334 W/m2
10:21 11.5 °C 9.4 °C 1006.1 hPa NW 1.4 km/h 8 km/h 87% 0.0 mm 232 W/m2
10:26 11.4 °C 9.1 °C 1006.1 hPa NNW 3.2 km/h 4.8 km/h 86% 0.0 mm 197 W/m2
10:31 11.4 °C 9 °C 1005.8 hPa Calm   14.5 km/h 85% 0.0 mm 206 W/m2
10:36 11.4 °C 9 °C 1006.1 hPa SW 3.2 km/h 6.4 km/h 85% 0.0 mm 234 W/m2
10:41 11.4 °C 9.1 °C 1006.1 hPa North 1.4 km/h 11.3 km/h 86% 0.0 mm 255 W/m2
10:46 11.6 °C 9.3 °C 1005.8 hPa ENE 4.7 km/h 4.8 km/h 86% 0.0 mm 250 W/m2
10:51 11.8 °C 9.4 °C 1005.8 hPa West 4.7 km/h 6.4 km/h 85% 0.0 mm 323 W/m2
10:56 11.9 °C 9.3 °C 1005.8 hPa WNW 3.2 km/h 6.4 km/h 84% 0.0 mm 371 W/m2
11:01 12.1 °C 9.5 °C 1005.8 hPa NE 3.2 km/h 4.8 km/h 84% 0.0 mm 359 W/m2
11:06 12.1 °C 9.3 °C 1005.8 hPa NW 4.7 km/h 9.7 km/h 83% 0.0 mm 318 W/m2
11:11 12.2 °C 9.4 °C 1005.8 hPa Calm   6.4 km/h 83% 0.0 mm 295 W/m2
11:16 12.2 °C 9 °C 1005.8 hPa Calm   6.4 km/h 81% 0.0 mm 148 W/m2
11:26 12.1 °C 8.6 °C 1005.8 hPa SE 1.4 km/h 6.4 km/h 79% 0.0 mm 104 W/m2
11:31 11.9 °C 8.4 °C 1005.8 hPa NE 4.7 km/h 6.4 km/h 79% 0.0 mm 104 W/m2
11:36 11.8 °C 8.5 °C 1005.8 hPa Calm   4.8 km/h 80% 0.0 mm 107 W/m2
11:41 11.7 °C 8.5 °C 1005.4 hPa NE 6.4 km/h 8 km/h 81% 0.0 mm 167 W/m2
11:46 11.3 °C 8.3 °C 1005.4 hPa NW 1.4 km/h 11.3 km/h 82% 0.0 mm 218 W/m2
11:51 11.2 °C 8.4 °C 1005.4 hPa North 1.4 km/h 4.8 km/h 83% 0.0 mm 251 W/m2
11:56 11.3 °C 8.7 °C 1005.4 hPa NW 3.2 km/h 11.3 km/h 84% 0.0 mm 272 W/m2
12:01 11.4 °C 8.6 °C 1005.1 hPa Calm   4.8 km/h 83% 0.2 mm 315 W/m2
12:06 11.5 °C 8.9 °C 1005.1 hPa WSW 3.2 km/h 8 km/h 84% 0.2 mm 357 W/m2
12:11 11.7 °C 9.3 °C 1005.1 hPa Calm   3.2 km/h 85% 0.2 mm 376 W/m2
12:16 12 °C 9.6 °C 1004.7 hPa East 4.7 km/h 9.7 km/h 85% 0.2 mm 265 W/m2
12:21 12.1 °C 9.3 °C 1004.7 hPa East 4.7 km/h 8 km/h 83% 0.2 mm 478 W/m2
12:26 12.3 °C 9.3 °C 1004.7 hPa SSW 1.4 km/h 3.2 km/h 82% 0.2 mm 327 W/m2
12:31 12.5 °C 9.3 °C 1004.7 hPa ENE 4.7 km/h 4.8 km/h 81% 0.2 mm 200 W/m2
12:36 12.4 °C 9 °C 1004.4 hPa SSE 1.4 km/h 9.7 km/h 80% 0.2 mm 192 W/m2
12:41 12.3 °C 8.9 °C 1004.4 hPa WNW 1.4 km/h 3.2 km/h 80% 0.2 mm 105 W/m2
12:46 12.3 °C 8.9 °C 1004.4 hPa East 4.7 km/h 8 km/h 80% 0.2 mm 130 W/m2
12:51 12.2 °C 8.9 °C 1004.7 hPa East 1.4 km/h 6.4 km/h 80% 0.2 mm 105 W/m2
12:56 12 °C 8.7 °C 1004.7 hPa WNW 3.2 km/h 3.2 km/h 80% 0.2 mm 102 W/m2
13:01 11.8 °C 8.5 °C 1004.4 hPa ENE 6.4 km/h 8 km/h 80% 0.0 mm 102 W/m2
13:06 11.6 °C 8.5 °C 1004.4 hPa ESE 1.4 km/h 12.9 km/h 81% 0.0 mm 162 W/m2
13:11 11.5 °C 8.5 °C 1004.7 hPa WNW 1.4 km/h 4.8 km/h 82% 0.0 mm 167 W/m2
13:17 11.4 °C 8.6 °C 1004.4 hPa East 1.4 km/h 8 km/h 83% 0.2 mm 260 W/m2
13:22 11.4 °C 8.6 °C 1004.4 hPa Calm   4.8 km/h 83% 0.2 mm 239 W/m2
13:27 11.4 °C 8.8 °C 1004.4 hPa East 6.4 km/h 12.9 km/h 84% 0.5 mm 258 W/m2
13:32 11.4 °C 8.8 °C 1004.1 hPa ENE 3.2 km/h 4.8 km/h 84% 0.5 mm 371 W/m2
13:37 11.5 °C 9.1 °C 1004.1 hPa NNW 1.4 km/h 12.9 km/h 85% 0.5 mm 207 W/m2
13:42 11.5 °C 8.9 °C 1004.1 hPa NW 6.4 km/h 6.4 km/h 84% 0.5 mm 183 W/m2
13:47 11.5 °C 8.7 °C 1004.1 hPa East 3.2 km/h 11.3 km/h 83% 0.5 mm 195 W/m2
13:52 11.5 °C 9.1 °C 1004.1 hPa Calm   4.8 km/h 85% 0.5 mm 181 W/m2
13:57 11.6 °C 9.2 °C 1004.1 hPa North 1.4 km/h 6.4 km/h 85% 0.5 mm 155 W/m2
14:02 11.5 °C 9.1 °C 1003.7 hPa East 4.7 km/h 6.4 km/h 85% 0.5 mm 274 W/m2
14:07 11.5 °C 9.1 °C 1003.7 hPa NNE 3.2 km/h 6.4 km/h 85% 0.5 mm 267 W/m2
14:12 11.6 °C 9.2 °C 1003.7 hPa ESE 4.7 km/h 4.8 km/h 85% 0.5 mm 216 W/m2
14:17 11.6 °C 9.2 °C 1003.7 hPa East 1.4 km/h 6.4 km/h 85% 0.5 mm 146 W/m2
14:22 11.5 °C 9.1 °C 1003.7 hPa East 1.4 km/h 8 km/h 85% 0.5 mm 151 W/m2
14:27 11.4 °C 9 °C 1003.4 hPa East 3.2 km/h 11.3 km/h 85% 0.2 mm 178 W/m2
14:32 11.4 °C 9.1 °C 1003.4 hPa Calm   4.8 km/h 86% 0.2 mm 134 W/m2
14:37 11.4 °C 9.1 °C 1003.4 hPa NE 4.7 km/h 11.3 km/h 86% 0.2 mm 144 W/m2
14:42 11.5 °C 9.4 °C 1003.0 hPa Calm   3.2 km/h 87% 0.2 mm 316 W/m2
14:47 11.7 °C 9.4 °C 1003.0 hPa ENE 1.4 km/h 6.4 km/h 86% 0.2 mm 199 W/m2
14:52 11.7 °C 9.4 °C 1003.0 hPa Calm   8 km/h 86% 0.2 mm 69 W/m2
14:57 11.7 °C 9.4 °C 1003.0 hPa ENE 3.2 km/h 6.4 km/h 86% 0.2 mm 86 W/m2
15:02 11.7 °C 9.4 °C 1003.0 hPa NE 3.2 km/h 4.8 km/h 86% 0.2 mm 160 W/m2
15:07 11.8 °C 9.5 °C 1003.0 hPa ENE 3.2 km/h 11.3 km/h 86% 0.2 mm 207 W/m2
15:12 11.9 °C 9.5 °C 1003.0 hPa NE 1.4 km/h 4.8 km/h 85% 0.2 mm 185 W/m2
15:17 11.9 °C 9.5 °C 1003.0 hPa South 4.7 km/h 14.5 km/h 85% 0.0 mm 113 W/m2
15:22 12 °C 9.7 °C 1003.0 hPa WSW 3.2 km/h 11.3 km/h 86% 0.0 mm 218 W/m2
15:33 12.1 °C 9.8 °C 1002.7 hPa West 16.3 km/h 16.1 km/h 86% 0.0 mm 392 W/m2
15:38 12.4 °C 9.9 °C 1002.4 hPa NW 1.4 km/h 11.3 km/h 85% 0.0 mm 995 W/m2
Juneau County Weather
Compliments of Weather Underground - 4 mb